sensor_id;sensor_type;location;lat;lon;timestamp;pressure;altitude;pressure_sealevel;temperature;humidity
54306;BME280;66145;45.188;5.712;2024-02-23T00:01:23;97985.44;;;19.76;45.37
54306;BME280;66145;45.188;5.712;2024-02-23T00:03:50;97996.50;;;19.80;45.35
54306;BME280;66145;45.188;5.712;2024-02-23T00:06:15;97991.84;;;19.81;45.38
54306;BME280;66145;45.188;5.712;2024-02-23T00:08:41;97980.41;;;19.79;45.42
54306;BME280;66145;45.188;5.712;2024-02-23T00:11:07;97960.09;;;19.67;45.38
54306;BME280;66145;45.188;5.712;2024-02-23T00:13:32;97962.84;;;19.67;45.54
54306;BME280;66145;45.188;5.712;2024-02-23T00:15:57;97937.72;;;19.49;45.61
54306;BME280;66145;45.188;5.712;2024-02-23T00:18:22;97976.69;;;19.71;45.73
54306;BME280;66145;45.188;5.712;2024-02-23T00:20:48;97981.72;;;19.69;45.73
54306;BME280;66145;45.188;5.712;2024-02-23T00:23:13;97982.41;;;19.66;45.48
54306;BME280;66145;45.188;5.712;2024-02-23T00:25:39;97988.69;;;19.66;45.76
54306;BME280;66145;45.188;5.712;2024-02-23T00:28:04;97994.63;;;19.68;45.51
54306;BME280;66145;45.188;5.712;2024-02-23T00:30:30;97986.66;;;19.63;45.54
54306;BME280;66145;45.188;5.712;2024-02-23T00:32:55;97990.72;;;19.69;45.49
54306;BME280;66145;45.188;5.712;2024-02-23T00:35:21;97990.03;;;19.72;45.42
54306;BME280;66145;45.188;5.712;2024-02-23T00:37:49;97966.50;;;19.71;45.77
54306;BME280;66145;45.188;5.712;2024-02-23T00:40:14;97970.06;;;19.72;45.50
54306;BME280;66145;45.188;5.712;2024-02-23T00:42:40;97954.75;;;19.71;45.46
54306;BME280;66145;45.188;5.712;2024-02-23T00:45:06;97956.88;;;19.78;45.43
54306;BME280;66145;45.188;5.712;2024-02-23T00:47:32;97953.44;;;19.81;45.42
54306;BME280;66145;45.188;5.712;2024-02-23T00:49:57;97948.34;;;19.83;45.41
54306;BME280;66145;45.188;5.712;2024-02-23T00:52:22;97931.38;;;19.77;45.44
54306;BME280;66145;45.188;5.712;2024-02-23T00:54:48;97923.75;;;19.70;45.62
54306;BME280;66145;45.188;5.712;2024-02-23T00:57:13;97944.38;;;19.80;45.09
54306;BME280;66145;45.188;5.712;2024-02-23T00:59:38;97940.22;;;19.70;45.63
54306;BME280;66145;45.188;5.712;2024-02-23T01:02:04;97947.28;;;19.71;45.50
54306;BME280;66145;45.188;5.712;2024-02-23T01:04:30;97957.13;;;19.72;45.72
54306;BME280;66145;45.188;5.712;2024-02-23T01:06:55;97953.59;;;19.72;45.66
54306;BME280;66145;45.188;5.712;2024-02-23T01:09:21;97947.22;;;19.68;45.68
54306;BME280;66145;45.188;5.712;2024-02-23T01:11:47;97947.53;;;19.66;45.93
54306;BME280;66145;45.188;5.712;2024-02-23T01:14:13;97938.78;;;19.60;45.82
54306;BME280;66145;45.188;5.712;2024-02-23T01:16:38;97918.25;;;19.54;45.76
54306;BME280;66145;45.188;5.712;2024-02-23T01:19:03;97905.25;;;19.51;45.82
54306;BME280;66145;45.188;5.712;2024-02-23T01:21:29;97913.56;;;19.55;45.79
54306;BME280;66145;45.188;5.712;2024-02-23T01:23:54;97909.38;;;19.45;45.89
54306;BME280;66145;45.188;5.712;2024-02-23T01:26:19;97923.63;;;19.51;45.90
54306;BME280;66145;45.188;5.712;2024-02-23T01:28:45;97896.28;;;19.38;45.80
54306;BME280;66145;45.188;5.712;2024-02-23T01:31:11;97877.81;;;19.51;46.03
54306;BME280;66145;45.188;5.712;2024-02-23T01:33:37;97857.13;;;19.54;45.83
54306;BME280;66145;45.188;5.712;2024-02-23T01:36:06;97817.84;;;19.34;46.03
54306;BME280;66145;45.188;5.712;2024-02-23T01:38:32;97854.81;;;19.56;45.90
54306;BME280;66145;45.188;5.712;2024-02-23T01:41:00;97872.25;;;19.64;45.89
54306;BME280;66145;45.188;5.712;2024-02-23T01:43:26;97850.72;;;19.50;45.91
54306;BME280;66145;45.188;5.712;2024-02-23T01:45:52;97875.81;;;19.64;46.03
54306;BME280;66145;45.188;5.712;2024-02-23T01:48:18;97894.63;;;19.66;45.95
54306;BME280;66145;45.188;5.712;2024-02-23T01:50:44;97885.34;;;19.70;46.01
54306;BME280;66145;45.188;5.712;2024-02-23T01:53:10;97869.59;;;19.67;45.81
54306;BME280;66145;45.188;5.712;2024-02-23T01:55:40;97863.47;;;19.74;45.95
54306;BME280;66145;45.188;5.712;2024-02-23T01:58:06;97842.59;;;19.69;45.95
54306;BME280;66145;45.188;5.712;2024-02-23T02:00:32;97852.16;;;19.75;45.69
54306;BME280;66145;45.188;5.712;2024-02-23T02:02:57;97819.88;;;19.53;45.94
54306;BME280;66145;45.188;5.712;2024-02-23T02:05:23;97856.50;;;19.76;45.83
54306;BME280;66145;45.188;5.712;2024-02-23T02:07:53;97873.13;;;19.84;45.71
54306;BME280;66145;45.188;5.712;2024-02-23T02:10:24;97859.41;;;19.84;45.72
54306;BME280;66145;45.188;5.712;2024-02-23T02:12:50;97865.63;;;19.81;45.57
54306;BME280;66145;45.188;5.712;2024-02-23T02:15:15;97819.63;;;19.58;45.89
54306;BME280;66145;45.188;5.712;2024-02-23T02:17:40;97865.53;;;19.77;45.86
54306;BME280;66145;45.188;5.712;2024-02-23T02:20:11;97853.41;;;19.78;45.87
54306;BME280;66145;45.188;5.712;2024-02-23T02:22:37;97859.34;;;19.80;45.99
54306;BME280;66145;45.188;5.712;2024-02-23T02:25:02;97846.69;;;19.75;46.10
54306;BME280;66145;45.188;5.712;2024-02-23T02:27:27;97832.16;;;19.75;46.27
54306;BME280;66145;45.188;5.712;2024-02-23T02:29:53;97826.66;;;19.75;46.11
54306;BME280;66145;45.188;5.712;2024-02-23T02:32:18;97814.53;;;19.76;46.13
54306;BME280;66145;45.188;5.712;2024-02-23T02:34:43;97817.66;;;19.74;46.10
54306;BME280;66145;45.188;5.712;2024-02-23T02:37:09;97823.16;;;19.74;45.97
54306;BME280;66145;45.188;5.712;2024-02-23T02:39:34;97816.94;;;19.78;45.94
54306;BME280;66145;45.188;5.712;2024-02-23T02:42:00;97818.03;;;19.73;45.79
54306;BME280;66145;45.188;5.712;2024-02-23T02:44:25;97813.50;;;19.81;45.92
54306;BME280;66145;45.188;5.712;2024-02-23T02:46:55;97793.66;;;19.71;46.01
54306;BME280;66145;45.188;5.712;2024-02-23T02:49:20;97808.53;;;19.86;45.71
54306;BME280;66145;45.188;5.712;2024-02-23T02:51:46;97814.03;;;19.86;45.76
54306;BME280;66145;45.188;5.712;2024-02-23T02:54:11;97798.19;;;19.80;45.86
54306;BME280;66145;45.188;5.712;2024-02-23T02:56:44;97812.91;;;19.87;45.72
54306;BME280;66145;45.188;5.712;2024-02-23T02:59:11;97813.22;;;19.86;45.71
54306;BME280;66145;45.188;5.712;2024-02-23T03:01:37;97802.94;;;19.83;45.90
54306;BME280;66145;45.188;5.712;2024-02-23T03:04:02;97791.38;;;19.73;45.90
54306;BME280;66145;45.188;5.712;2024-02-23T03:06:27;97801.34;;;19.82;45.91
54306;BME280;66145;45.188;5.712;2024-02-23T03:08:53;97796.66;;;19.82;46.00
54306;BME280;66145;45.188;5.712;2024-02-23T03:11:18;97790.75;;;19.80;45.95
54306;BME280;66145;45.188;5.712;2024-02-23T03:13:43;97767.75;;;19.69;45.91
54306;BME280;66145;45.188;5.712;2024-02-23T03:16:18;97776.94;;;19.76;45.95
54306;BME280;66145;45.188;5.712;2024-02-23T03:18:44;97779.69;;;19.76;46.03
54306;BME280;66145;45.188;5.712;2024-02-23T03:21:09;97773.41;;;19.76;46.09
54306;BME280;66145;45.188;5.712;2024-02-23T03:23:35;97765.53;;;19.74;45.77
54306;BME280;66145;45.188;5.712;2024-02-23T03:26:01;97756.88;;;19.72;45.87
54306;BME280;66145;45.188;5.712;2024-02-23T03:28:27;97761.72;;;19.79;46.04
54306;BME280;66145;45.188;5.712;2024-02-23T03:30:52;97763.75;;;19.82;46.08
54306;BME280;66145;45.188;5.712;2024-02-23T03:33:18;97754.91;;;19.89;45.87
54306;BME280;66145;45.188;5.712;2024-02-23T03:35:43;97742.59;;;19.83;45.84
54306;BME280;66145;45.188;5.712;2024-02-23T03:38:08;97735.94;;;19.84;45.90
54306;BME280;66145;45.188;5.712;2024-02-23T03:40:34;97744.63;;;19.86;46.04
54306;BME280;66145;45.188;5.712;2024-02-23T03:43:01;97761.53;;;19.88;46.01
54306;BME280;66145;45.188;5.712;2024-02-23T03:45:27;97767.38;;;19.86;45.71
54306;BME280;66145;45.188;5.712;2024-02-23T03:47:52;97765.09;;;19.88;45.84
54306;BME280;66145;45.188;5.712;2024-02-23T03:50:17;97765.78;;;19.85;45.89
54306;BME280;66145;45.188;5.712;2024-02-23T03:52:43;97751.63;;;19.83;46.03
54306;BME280;66145;45.188;5.712;2024-02-23T03:55:08;97759.03;;;19.83;45.92
54306;BME280;66145;45.188;5.712;2024-02-23T03:57:34;97746.91;;;19.84;45.82
54306;BME280;66145;45.188;5.712;2024-02-23T03:59:59;97747.72;;;19.84;45.99
54306;BME280;66145;45.188;5.712;2024-02-23T04:02:24;97741.00;;;19.82;46.05
54306;BME280;66145;45.188;5.712;2024-02-23T04:04:50;97713.25;;;19.67;45.94
54306;BME280;66145;45.188;5.712;2024-02-23T04:07:15;97730.38;;;19.80;46.05
54306;BME280;66145;45.188;5.712;2024-02-23T04:09:40;97712.97;;;19.72;45.97
54306;BME280;66145;45.188;5.712;2024-02-23T04:12:06;97709.78;;;19.70;45.93
54306;BME280;66145;45.188;5.712;2024-02-23T04:14:32;97712.00;;;19.81;46.00
54306;BME280;66145;45.188;5.712;2024-02-23T04:17:02;97708.88;;;19.82;45.84
54306;BME280;66145;45.188;5.712;2024-02-23T04:19:27;97705.44;;;19.85;45.69
54306;BME280;66145;45.188;5.712;2024-02-23T04:21:53;97704.97;;;19.83;45.86
54306;BME280;66145;45.188;5.712;2024-02-23T04:24:18;97700.28;;;19.84;45.64
54306;BME280;66145;45.188;5.712;2024-02-23T04:26:44;97691.38;;;19.87;45.83
54306;BME280;66145;45.188;5.712;2024-02-23T04:29:09;97685.88;;;19.87;45.74
54306;BME280;66145;45.188;5.712;2024-02-23T04:31:37;97687.91;;;19.90;45.61
54306;BME280;66145;45.188;5.712;2024-02-23T04:34:02;97686.94;;;19.82;45.88
54306;BME280;66145;45.188;5.712;2024-02-23T04:36:28;97668.13;;;19.65;45.82
54306;BME280;66145;45.188;5.712;2024-02-23T04:38:53;97680.06;;;19.72;45.71
54306;BME280;66145;45.188;5.712;2024-02-23T04:41:20;97703.94;;;19.88;45.96
54306;BME280;66145;45.188;5.712;2024-02-23T04:43:47;97693.94;;;19.80;45.95
54306;BME280;66145;45.188;5.712;2024-02-23T04:46:12;97694.72;;;19.80;46.00
54306;BME280;66145;45.188;5.712;2024-02-23T04:48:38;97693.41;;;19.74;46.23
54306;BME280;66145;45.188;5.712;2024-02-23T04:51:03;97707.28;;;19.81;46.24
54306;BME280;66145;45.188;5.712;2024-02-23T04:53:29;97691.75;;;19.69;45.87
54306;BME280;66145;45.188;5.712;2024-02-23T04:55:54;97690.06;;;19.65;46.24
54306;BME280;66145;45.188;5.712;2024-02-23T04:58:19;97705.19;;;19.74;45.97
54306;BME280;66145;45.188;5.712;2024-02-23T05:00:46;97711.13;;;19.76;45.87
54306;BME280;66145;45.188;5.712;2024-02-23T05:03:11;97726.13;;;19.83;45.86
54306;BME280;66145;45.188;5.712;2024-02-23T05:05:37;97712.00;;;19.81;46.12
54306;BME280;66145;45.188;5.712;2024-02-23T05:08:02;97699.19;;;19.69;45.96
54306;BME280;66145;45.188;5.712;2024-02-23T05:10:28;97714.19;;;19.75;46.48
54306;BME280;66145;45.188;5.712;2024-02-23T05:12:53;97715.44;;;19.78;45.83
54306;BME280;66145;45.188;5.712;2024-02-23T05:15:18;97721.38;;;19.80;45.63
54306;BME280;66145;45.188;5.712;2024-02-23T05:17:44;97708.00;;;19.78;45.50
54306;BME280;66145;45.188;5.712;2024-02-23T05:20:10;97701.13;;;19.68;45.51
54306;BME280;66145;45.188;5.712;2024-02-23T05:22:36;97722.09;;;19.76;45.46
54306;BME280;66145;45.188;5.712;2024-02-23T05:25:02;97710.31;;;19.76;45.48
54306;BME280;66145;45.188;5.712;2024-02-23T05:27:27;97735.16;;;19.83;45.59
54306;BME280;66145;45.188;5.712;2024-02-23T05:29:53;97724.38;;;19.74;45.42
54306;BME280;66145;45.188;5.712;2024-02-23T05:32:18;97714.06;;;19.68;45.80
54306;BME280;66145;45.188;5.712;2024-02-23T05:34:44;97731.03;;;19.73;45.78
54306;BME280;66145;45.188;5.712;2024-02-23T05:37:10;97739.00;;;19.79;45.60
54306;BME280;66145;45.188;5.712;2024-02-23T05:39:35;97724.59;;;19.66;45.82
54306;BME280;66145;45.188;5.712;2024-02-23T05:42:03;97734.22;;;19.75;45.67
54306;BME280;66145;45.188;5.712;2024-02-23T05:44:28;97723.50;;;19.70;45.54
54306;BME280;66145;45.188;5.712;2024-02-23T05:46:54;97693.00;;;19.56;45.57
54306;BME280;66145;45.188;5.712;2024-02-23T05:49:19;97708.84;;;19.63;45.64
54306;BME280;66145;45.188;5.712;2024-02-23T05:51:44;97729.50;;;19.76;45.82
54306;BME280;66145;45.188;5.712;2024-02-23T05:54:10;97732.34;;;19.80;45.74
54306;BME280;66145;45.188;5.712;2024-02-23T05:56:35;97727.06;;;19.71;45.30
54306;BME280;66145;45.188;5.712;2024-02-23T05:59:02;97697.72;;;19.55;45.42
54306;BME280;66145;45.188;5.712;2024-02-23T06:01:27;97725.59;;;19.77;45.30
54306;BME280;66145;45.188;5.712;2024-02-23T06:03:53;97721.13;;;19.69;45.15
54306;BME280;66145;45.188;5.712;2024-02-23T06:06:20;97732.25;;;19.76;45.30
54306;BME280;66145;45.188;5.712;2024-02-23T06:08:45;97725.97;;;19.75;45.37
54306;BME280;66145;45.188;5.712;2024-02-23T06:11:11;97703.28;;;19.59;45.06
54306;BME280;66145;45.188;5.712;2024-02-23T06:13:36;97743.72;;;19.82;45.31
54306;BME280;66145;45.188;5.712;2024-02-23T06:16:02;97740.56;;;19.80;45.25
54306;BME280;66145;45.188;5.712;2024-02-23T06:18:28;97734.22;;;19.75;45.35
54306;BME280;66145;45.188;5.712;2024-02-23T06:20:53;97724.66;;;19.69;45.19
54306;BME280;66145;45.188;5.712;2024-02-23T06:23:18;97735.81;;;19.76;45.15
54306;BME280;66145;45.188;5.712;2024-02-23T06:25:44;97735.63;;;19.69;45.20
54306;BME280;66145;45.188;5.712;2024-02-23T06:28:09;97739.19;;;19.70;45.24
54306;BME280;66145;45.188;5.712;2024-02-23T06:30:36;97747.47;;;19.73;45.40
54306;BME280;66145;45.188;5.712;2024-02-23T06:33:01;97748.38;;;19.78;45.18
54306;BME280;66145;45.188;5.712;2024-02-23T06:35:26;97733.31;;;19.71;45.21
54306;BME280;66145;45.188;5.712;2024-02-23T06:37:52;97746.84;;;19.80;45.48
54306;BME280;66145;45.188;5.712;2024-02-23T06:40:17;97742.59;;;19.83;45.02
54306;BME280;66145;45.188;5.712;2024-02-23T06:42:43;97743.31;;;19.80;44.94
54306;BME280;66145;45.188;5.712;2024-02-23T06:45:09;97741.34;;;19.80;45.00
54306;BME280;66145;45.188;5.712;2024-02-23T06:47:34;97752.06;;;19.85;44.90
54306;BME280;66145;45.188;5.712;2024-02-23T06:50:00;97752.41;;;19.84;45.00
54306;BME280;66145;45.188;5.712;2024-02-23T06:52:25;97745.31;;;19.83;44.98
54306;BME280;66145;45.188;5.712;2024-02-23T06:54:51;97755.97;;;19.84;45.12
54306;BME280;66145;45.188;5.712;2024-02-23T06:57:17;97749.59;;;19.80;45.28
54306;BME280;66145;45.188;5.712;2024-02-23T06:59:42;97762.53;;;19.80;45.33
54306;BME280;66145;45.188;5.712;2024-02-23T07:02:08;97761.44;;;19.84;44.99
54306;BME280;66145;45.188;5.712;2024-02-23T07:04:33;97768.53;;;19.85;45.20
54306;BME280;66145;45.188;5.712;2024-02-23T07:06:59;97749.06;;;19.74;45.25
54306;BME280;66145;45.188;5.712;2024-02-23T07:09:24;97756.94;;;19.76;45.38
54306;BME280;66145;45.188;5.712;2024-02-23T07:11:50;97751.44;;;19.76;45.27
54306;BME280;66145;45.188;5.712;2024-02-23T07:14:15;97759.78;;;19.80;45.37
54306;BME280;66145;45.188;5.712;2024-02-23T07:16:42;97746.34;;;19.74;45.60
54306;BME280;66145;45.188;5.712;2024-02-23T07:19:08;97755.78;;;19.77;45.37
54306;BME280;66145;45.188;5.712;2024-02-23T07:21:34;97759.34;;;19.78;45.25
54306;BME280;66145;45.188;5.712;2024-02-23T07:24:00;97752.25;;;19.76;45.04
54306;BME280;66145;45.188;5.712;2024-02-23T07:26:26;97758.25;;;19.82;45.16
54306;BME280;66145;45.188;5.712;2024-02-23T07:28:53;97736.63;;;19.61;45.26
54306;BME280;66145;45.188;5.712;2024-02-23T07:31:19;97765.34;;;19.83;44.83
54306;BME280;66145;45.188;5.712;2024-02-23T07:33:44;97747.47;;;19.73;44.85
54306;BME280;66145;45.188;5.712;2024-02-23T07:36:15;97771.28;;;19.85;44.60
54306;BME280;66145;45.188;5.712;2024-02-23T07:38:41;97760.94;;;19.79;44.51
54306;BME280;66145;45.188;5.712;2024-02-23T07:41:06;97769.78;;;19.88;44.66
54306;BME280;66145;45.188;5.712;2024-02-23T07:43:32;97778.00;;;19.88;44.76
54306;BME280;66145;45.188;5.712;2024-02-23T07:45:57;97771.28;;;19.85;44.63
54306;BME280;66145;45.188;5.712;2024-02-23T07:48:22;97770.03;;;19.83;44.86
54306;BME280;66145;45.188;5.712;2024-02-23T07:50:48;97768.53;;;19.85;44.83
54306;BME280;66145;45.188;5.712;2024-02-23T07:53:13;97779.16;;;19.87;44.76
54306;BME280;66145;45.188;5.712;2024-02-23T07:55:38;97780.59;;;19.81;44.79
54306;BME280;66145;45.188;5.712;2024-02-23T07:58:04;97758.09;;;19.75;44.78
54306;BME280;66145;45.188;5.712;2024-02-23T08:00:29;97776.66;;;19.82;44.63
54306;BME280;66145;45.188;5.712;2024-02-23T08:02:54;97762.34;;;19.72;44.86
54306;BME280;66145;45.188;5.712;2024-02-23T08:05:24;97769.88;;;19.75;44.48
54306;BME280;66145;45.188;5.712;2024-02-23T08:07:49;97753.16;;;19.65;44.80
54306;BME280;66145;45.188;5.712;2024-02-23T08:10:15;97772.94;;;19.74;44.76
54306;BME280;66145;45.188;5.712;2024-02-23T08:12:40;97776.88;;;19.73;44.97
54306;BME280;66145;45.188;5.712;2024-02-23T08:15:06;97768.72;;;19.76;44.87
54306;BME280;66145;45.188;5.712;2024-02-23T08:17:32;97769.88;;;19.59;45.26
54306;BME280;66145;45.188;5.712;2024-02-23T08:19:57;97743.78;;;19.50;44.86
54306;BME280;66145;45.188;5.712;2024-02-23T08:22:22;97766.25;;;19.71;44.61
54306;BME280;66145;45.188;5.712;2024-02-23T08:24:48;97753.22;;;19.68;44.37
54306;BME280;66145;45.188;5.712;2024-02-23T08:27:14;97752.25;;;19.76;44.56
54306;BME280;66145;45.188;5.712;2024-02-23T08:29:39;97764.63;;;19.86;44.41
54306;BME280;66145;45.188;5.712;2024-02-23T08:32:05;97755.06;;;19.80;44.50
54306;BME280;66145;45.188;5.712;2024-02-23T08:34:31;97775.06;;;19.97;44.17
54306;BME280;66145;45.188;5.712;2024-02-23T08:36:56;97776.41;;;20.03;44.03
54306;BME280;66145;45.188;5.712;2024-02-23T08:39:21;97774.09;;;20.05;44.31
54306;BME280;66145;45.188;5.712;2024-02-23T08:41:47;97771.69;;;20.03;44.03
54306;BME280;66145;45.188;5.712;2024-02-23T08:44:12;97769.81;;;20.08;44.00
54306;BME280;66145;45.188;5.712;2024-02-23T08:46:38;97761.53;;;20.04;43.99
54306;BME280;66145;45.188;5.712;2024-02-23T08:49:04;97760.28;;;20.01;44.23
54306;BME280;66145;45.188;5.712;2024-02-23T08:51:30;97766.19;;;20.03;44.03
54306;BME280;66145;45.188;5.712;2024-02-23T08:53:55;97765.03;;;20.04;44.16
54306;BME280;66145;45.188;5.712;2024-02-23T08:56:22;97768.59;;;20.05;44.26
54306;BME280;66145;45.188;5.712;2024-02-23T08:58:47;97749.16;;;19.94;44.29
54306;BME280;66145;45.188;5.712;2024-02-23T09:01:13;97714.94;;;19.72;44.52
54306;BME280;66145;45.188;5.712;2024-02-23T09:03:38;97745.97;;;19.92;44.46
54306;BME280;66145;45.188;5.712;2024-02-23T09:06:04;97741.44;;;19.84;44.49
54306;BME280;66145;45.188;5.712;2024-02-23T09:08:29;97747.13;;;19.91;44.57
54306;BME280;66145;45.188;5.712;2024-02-23T09:10:54;97760.13;;;19.94;44.44
54306;BME280;66145;45.188;5.712;2024-02-23T09:13:20;97747.84;;;19.88;44.58
54306;BME280;66145;45.188;5.712;2024-02-23T09:15:45;97758.59;;;19.97;44.40
54306;BME280;66145;45.188;5.712;2024-02-23T09:18:10;97764.53;;;19.99;44.41
54306;BME280;66145;45.188;5.712;2024-02-23T09:20:36;97754.63;;;19.94;44.56
54306;BME280;66145;45.188;5.712;2024-02-23T09:23:01;97746.03;;;19.96;44.13
54306;BME280;66145;45.188;5.712;2024-02-23T09:25:26;97741.78;;;19.98;44.46
54306;BME280;66145;45.188;5.712;2024-02-23T09:27:52;97746.22;;;20.03;44.29
54306;BME280;66145;45.188;5.712;2024-02-23T09:30:17;97724.16;;;19.99;44.18
54306;BME280;66145;45.188;5.712;2024-02-23T09:32:42;97740.50;;;20.12;44.10
54306;BME280;66145;45.188;5.712;2024-02-23T09:35:09;97726.63;;;20.04;44.14
54306;BME280;66145;45.188;5.712;2024-02-23T09:37:34;97741.34;;;20.16;43.94
54306;BME280;66145;45.188;5.712;2024-02-23T09:40:00;97718.03;;;20.06;43.99
54306;BME280;66145;45.188;5.712;2024-02-23T09:42:28;97732.34;;;20.15;44.16
54306;BME280;66145;45.188;5.712;2024-02-23T09:44:59;97726.03;;;20.15;44.15
54306;BME280;66145;45.188;5.712;2024-02-23T09:47:28;97714.56;;;20.09;44.13
54306;BME280;66145;45.188;5.712;2024-02-23T09:49:54;97715.72;;;20.08;44.54
54306;BME280;66145;45.188;5.712;2024-02-23T09:52:21;97708.94;;;20.02;44.38
54306;BME280;66145;45.188;5.712;2024-02-23T09:54:47;97706.31;;;19.89;44.44
54306;BME280;66145;45.188;5.712;2024-02-23T09:57:13;97691.97;;;19.80;44.70
54306;BME280;66145;45.188;5.712;2024-02-23T09:59:40;97696.84;;;19.87;44.13
54306;BME280;66145;45.188;5.712;2024-02-23T10:02:15;97668.13;;;19.65;44.31
54306;BME280;66145;45.188;5.712;2024-02-23T10:04:42;97688.88;;;19.82;44.44
54306;BME280;66145;45.188;5.712;2024-02-23T10:07:14;97693.56;;;19.81;44.30
54306;BME280;66145;45.188;5.712;2024-02-23T10:09:41;97682.09;;;19.75;44.33
54306;BME280;66145;45.188;5.712;2024-02-23T10:12:07;97668.94;;;19.65;44.32
54306;BME280;66145;45.188;5.712;2024-02-23T10:14:32;97685.53;;;19.72;43.97
54306;BME280;66145;45.188;5.712;2024-02-23T10:16:57;97663.88;;;19.67;42.75
54306;BME280;66145;45.188;5.712;2024-02-23T10:19:23;97678.31;;;19.84;42.37
54306;BME280;66145;45.188;5.712;2024-02-23T10:21:54;97674.09;;;19.86;42.86
54306;BME280;66145;45.188;5.712;2024-02-23T10:24:20;97651.91;;;19.75;42.79
54306;BME280;66145;45.188;5.712;2024-02-23T10:26:46;97657.13;;;19.81;42.74
54306;BME280;66145;45.188;5.712;2024-02-23T10:29:12;97667.78;;;19.86;42.76
54306;BME280;66145;45.188;5.712;2024-02-23T10:31:37;97659.56;;;19.86;42.85
54306;BME280;66145;45.188;5.712;2024-02-23T10:34:07;97652.13;;;19.86;42.97
54306;BME280;66145;45.188;5.712;2024-02-23T10:36:36;97657.53;;;19.83;43.16
54306;BME280;66145;45.188;5.712;2024-02-23T10:39:03;97650.03;;;19.80;42.96
54306;BME280;66145;45.188;5.712;2024-02-23T10:41:34;97645.72;;;19.79;43.25
54306;BME280;66145;45.188;5.712;2024-02-23T10:44:00;97644.84;;;19.74;43.33
54306;BME280;66145;45.188;5.712;2024-02-23T10:46:30;97611.56;;;19.56;43.47
54306;BME280;66145;45.188;5.712;2024-02-23T10:48:58;97626.72;;;19.70;43.35
54306;BME280;66145;45.188;5.712;2024-02-23T10:51:24;97637.69;;;19.70;43.57
54306;BME280;66145;45.188;5.712;2024-02-23T10:53:52;97625.78;;;19.62;43.61
54306;BME280;66145;45.188;5.712;2024-02-23T10:56:17;97612.25;;;19.53;43.63
54306;BME280;66145;45.188;5.712;2024-02-23T10:58:43;97627.00;;;19.65;43.77
54306;BME280;66145;45.188;5.712;2024-02-23T11:01:09;97621.66;;;19.72;43.42
54306;BME280;66145;45.188;5.712;2024-02-23T11:03:36;97619.72;;;19.72;43.54
54306;BME280;66145;45.188;5.712;2024-02-23T11:06:06;97622.81;;;19.71;43.85
54306;BME280;66145;45.188;5.712;2024-02-23T11:08:35;97628.00;;;19.76;43.41
54306;BME280;66145;45.188;5.712;2024-02-23T11:11:09;97620.53;;;19.73;43.47
54306;BME280;66145;45.188;5.712;2024-02-23T11:13:35;97619.88;;;19.80;43.46
54306;BME280;66145;45.188;5.712;2024-02-23T11:16:10;97576.31;;;19.58;43.13
54306;BME280;66145;45.188;5.712;2024-02-23T11:18:36;97608.09;;;19.79;43.22
54306;BME280;66145;45.188;5.712;2024-02-23T11:21:04;97591.91;;;19.74;43.70
54306;BME280;66145;45.188;5.712;2024-02-23T11:23:44;97600.94;;;19.74;43.07
54306;BME280;66145;45.188;5.712;2024-02-23T11:26:10;97609.41;;;19.85;43.53
54306;BME280;66145;45.188;5.712;2024-02-23T11:31:16;97600.28;;;19.81;43.36
54306;BME280;66145;45.188;5.712;2024-02-23T11:33:51;97589.53;;;19.72;43.29
54306;BME280;66145;45.188;5.712;2024-02-23T11:36:23;97604.69;;;19.86;43.34
54306;BME280;66145;45.188;5.712;2024-02-23T11:38:53;97593.94;;;19.77;43.53
54306;BME280;66145;45.188;5.712;2024-02-23T11:41:21;97588.81;;;19.75;43.66
54306;BME280;66145;45.188;5.712;2024-02-23T11:43:47;97587.22;;;19.74;43.53
54306;BME280;66145;45.188;5.712;2024-02-23T11:46:14;97595.53;;;19.78;43.57
54306;BME280;66145;45.188;5.712;2024-02-23T11:48:39;97585.63;;;19.73;43.77
54306;BME280;66145;45.188;5.712;2024-02-23T11:51:04;97568.69;;;19.68;43.86
54306;BME280;66145;45.188;5.712;2024-02-23T11:53:30;97584.22;;;19.80;43.72
54306;BME280;66145;45.188;5.712;2024-02-23T11:55:57;97577.91;;;19.79;43.59
54306;BME280;66145;45.188;5.712;2024-02-23T11:58:22;97573.94;;;19.76;43.62
54306;BME280;66145;45.188;5.712;2024-02-23T12:00:48;97560.66;;;19.79;43.57
54306;BME280;66145;45.188;5.712;2024-02-23T12:03:13;97555.91;;;19.75;43.35
54306;BME280;66145;45.188;5.712;2024-02-23T12:05:38;97567.97;;;19.90;43.32
54306;BME280;66145;45.188;5.712;2024-02-23T12:08:04;97558.22;;;19.93;43.84
54306;BME280;66145;45.188;5.712;2024-02-23T12:10:30;97550.34;;;19.91;43.56
54306;BME280;66145;45.188;5.712;2024-02-23T12:12:56;97560.66;;;19.98;43.39
54306;BME280;66145;45.188;5.712;2024-02-23T12:15:21;97549.28;;;19.96;43.47
54306;BME280;66145;45.188;5.712;2024-02-23T12:17:47;97549.28;;;19.96;43.63
54306;BME280;66145;45.188;5.712;2024-02-23T12:20:13;97543.78;;;19.96;43.50
54306;BME280;66145;45.188;5.712;2024-02-23T12:22:38;97540.53;;;19.90;43.61
54306;BME280;66145;45.188;5.712;2024-02-23T12:25:05;97537.00;;;19.90;43.66
54306;BME280;66145;45.188;5.712;2024-02-23T12:27:31;97537.00;;;19.90;43.80
54306;BME280;66145;45.188;5.712;2024-02-23T12:29:56;97527.59;;;19.91;43.60
54306;BME280;66145;45.188;5.712;2024-02-23T12:32:22;97527.19;;;19.89;43.80
54306;BME280;66145;45.188;5.712;2024-02-23T12:34:48;97525.50;;;19.84;43.72
54306;BME280;66145;45.188;5.712;2024-02-23T12:37:17;97514.47;;;19.81;43.81
54306;BME280;66145;45.188;5.712;2024-02-23T12:39:43;97513.59;;;19.76;43.75
54306;BME280;66145;45.188;5.712;2024-02-23T12:42:09;97516.91;;;19.86;43.32
54306;BME280;66145;45.188;5.712;2024-02-23T12:44:34;97521.94;;;19.84;43.71
54306;BME280;66145;45.188;5.712;2024-02-23T12:47:00;97517.69;;;19.86;43.81
54306;BME280;66145;45.188;5.712;2024-02-23T12:49:25;97520.78;;;19.85;43.92
54306;BME280;66145;45.188;5.712;2024-02-23T12:51:51;97519.56;;;19.82;43.93
54306;BME280;66145;45.188;5.712;2024-02-23T12:54:16;97515.53;;;19.76;44.05
54306;BME280;66145;45.188;5.712;2024-02-23T12:56:41;97498.22;;;19.72;44.05